sensor_id;sensor_type;location;lat;lon;timestamp;temperature;humidity
48728;DHT22;34527;45.618;5.130;2024-01-15T00:02:24;3.30;99.90
48728;DHT22;34527;45.618;5.130;2024-01-15T00:04:50;3.40;99.90
48728;DHT22;34527;45.618;5.130;2024-01-15T00:07:15;3.40;99.90
48728;DHT22;34527;45.618;5.130;2024-01-15T00:09:41;3.30;99.90
48728;DHT22;34527;45.618;5.130;2024-01-15T00:12:07;3.40;99.90
48728;DHT22;34527;45.618;5.130;2024-01-15T00:14:32;3.40;99.90
48728;DHT22;34527;45.618;5.130;2024-01-15T00:16:58;3.40;99.90
48728;DHT22;34527;45.618;5.130;2024-01-15T00:19:24;3.40;99.90
48728;DHT22;34527;45.618;5.130;2024-01-15T00:21:50;3.30;99.90
48728;DHT22;34527;45.618;5.130;2024-01-15T00:24:16;3.30;99.90
48728;DHT22;34527;45.618;5.130;2024-01-15T00:26:42;3.30;99.90
48728;DHT22;34527;45.618;5.130;2024-01-15T00:29:08;3.30;99.90
48728;DHT22;34527;45.618;5.130;2024-01-15T00:31:34;3.30;99.90
48728;DHT22;34527;45.618;5.130;2024-01-15T00:34:00;3.30;99.90
48728;DHT22;34527;45.618;5.130;2024-01-15T00:36:26;3.30;99.90
48728;DHT22;34527;45.618;5.130;2024-01-15T00:38:52;3.30;99.90
48728;DHT22;34527;45.618;5.130;2024-01-15T00:41:18;3.30;99.90
48728;DHT22;34527;45.618;5.130;2024-01-15T00:43:44;3.40;99.90
48728;DHT22;34527;45.618;5.130;2024-01-15T00:46:10;3.30;99.90
48728;DHT22;34527;45.618;5.130;2024-01-15T00:48:36;3.40;99.90
48728;DHT22;34527;45.618;5.130;2024-01-15T00:51:04;3.40;99.90
48728;DHT22;34527;45.618;5.130;2024-01-15T00:53:29;3.40;99.90
48728;DHT22;34527;45.618;5.130;2024-01-15T00:55:55;3.30;99.90
48728;DHT22;34527;45.618;5.130;2024-01-15T00:58:21;3.30;99.90
48728;DHT22;34527;45.618;5.130;2024-01-15T01:00:46;3.30;99.90
48728;DHT22;34527;45.618;5.130;2024-01-15T01:03:12;3.30;99.90
48728;DHT22;34527;45.618;5.130;2024-01-15T01:05:38;3.40;99.90
48728;DHT22;34527;45.618;5.130;2024-01-15T01:08:03;3.30;99.90
48728;DHT22;34527;45.618;5.130;2024-01-15T01:10:29;3.30;99.90
48728;DHT22;34527;45.618;5.130;2024-01-15T01:12:55;3.40;99.90
48728;DHT22;34527;45.618;5.130;2024-01-15T01:15:21;3.40;99.90
48728;DHT22;34527;45.618;5.130;2024-01-15T01:17:46;3.40;99.90
48728;DHT22;34527;45.618;5.130;2024-01-15T01:20:12;3.30;99.90
48728;DHT22;34527;45.618;5.130;2024-01-15T01:22:38;3.40;99.90
48728;DHT22;34527;45.618;5.130;2024-01-15T01:25:04;3.40;99.90
48728;DHT22;34527;45.618;5.130;2024-01-15T01:27:30;3.40;99.90
48728;DHT22;34527;45.618;5.130;2024-01-15T01:29:56;3.30;99.90
48728;DHT22;34527;45.618;5.130;2024-01-15T01:32:21;3.30;99.90
48728;DHT22;34527;45.618;5.130;2024-01-15T01:34:47;3.30;99.90
48728;DHT22;34527;45.618;5.130;2024-01-15T01:37:12;3.30;99.90
48728;DHT22;34527;45.618;5.130;2024-01-15T01:39:42;3.30;99.90
48728;DHT22;34527;45.618;5.130;2024-01-15T01:42:07;3.40;99.90
48728;DHT22;34527;45.618;5.130;2024-01-15T01:44:33;3.40;99.90
48728;DHT22;34527;45.618;5.130;2024-01-15T01:47:00;3.30;99.90
48728;DHT22;34527;45.618;5.130;2024-01-15T01:49:27;3.30;99.90
48728;DHT22;34527;45.618;5.130;2024-01-15T01:51:53;3.20;99.90
48728;DHT22;34527;45.618;5.130;2024-01-15T01:54:19;3.20;99.90
48728;DHT22;34527;45.618;5.130;2024-01-15T01:56:47;3.30;99.90
48728;DHT22;34527;45.618;5.130;2024-01-15T01:59:13;3.30;99.90
48728;DHT22;34527;45.618;5.130;2024-01-15T02:01:40;3.30;99.90
48728;DHT22;34527;45.618;5.130;2024-01-15T02:04:07;3.20;99.90
48728;DHT22;34527;45.618;5.130;2024-01-15T02:06:34;3.20;99.90
48728;DHT22;34527;45.618;5.130;2024-01-15T02:08:59;3.30;99.90
48728;DHT22;34527;45.618;5.130;2024-01-15T02:11:37;3.20;99.90
48728;DHT22;34527;45.618;5.130;2024-01-15T02:14:03;3.20;99.90
48728;DHT22;34527;45.618;5.130;2024-01-15T02:16:29;3.20;99.90
48728;DHT22;34527;45.618;5.130;2024-01-15T02:18:54;3.30;99.90
48728;DHT22;34527;45.618;5.130;2024-01-15T02:21:20;3.30;99.90
48728;DHT22;34527;45.618;5.130;2024-01-15T02:23:45;3.20;99.90
48728;DHT22;34527;45.618;5.130;2024-01-15T02:26:12;3.20;99.90
48728;DHT22;34527;45.618;5.130;2024-01-15T02:28:38;3.10;99.90
48728;DHT22;34527;45.618;5.130;2024-01-15T02:31:03;3.10;99.90
48728;DHT22;34527;45.618;5.130;2024-01-15T02:33:29;3.20;99.90
48728;DHT22;34527;45.618;5.130;2024-01-15T02:35:54;3.20;99.90
48728;DHT22;34527;45.618;5.130;2024-01-15T02:38:20;3.20;99.90
48728;DHT22;34527;45.618;5.130;2024-01-15T02:40:46;3.20;99.90
48728;DHT22;34527;45.618;5.130;2024-01-15T02:43:12;3.20;99.90
48728;DHT22;34527;45.618;5.130;2024-01-15T02:45:39;3.20;99.90
48728;DHT22;34527;45.618;5.130;2024-01-15T02:48:05;3.20;99.90
48728;DHT22;34527;45.618;5.130;2024-01-15T02:50:30;3.20;99.90
48728;DHT22;34527;45.618;5.130;2024-01-15T02:52:56;3.20;99.90
48728;DHT22;34527;45.618;5.130;2024-01-15T02:55:22;3.20;99.90
48728;DHT22;34527;45.618;5.130;2024-01-15T02:57:47;3.30;99.90
48728;DHT22;34527;45.618;5.130;2024-01-15T03:00:13;3.20;99.90
48728;DHT22;34527;45.618;5.130;2024-01-15T03:02:39;3.20;99.90
48728;DHT22;34527;45.618;5.130;2024-01-15T03:05:06;3.20;99.90
48728;DHT22;34527;45.618;5.130;2024-01-15T03:07:33;3.20;99.90
48728;DHT22;34527;45.618;5.130;2024-01-15T03:09:58;3.20;99.90
48728;DHT22;34527;45.618;5.130;2024-01-15T03:12:24;3.30;99.90
48728;DHT22;34527;45.618;5.130;2024-01-15T03:14:49;3.20;99.90
48728;DHT22;34527;45.618;5.130;2024-01-15T03:17:15;3.20;99.90
48728;DHT22;34527;45.618;5.130;2024-01-15T03:19:41;3.20;99.90
48728;DHT22;34527;45.618;5.130;2024-01-15T03:22:07;3.30;99.90
48728;DHT22;34527;45.618;5.130;2024-01-15T03:24:34;3.20;99.90
48728;DHT22;34527;45.618;5.130;2024-01-15T03:27:00;3.10;99.90
48728;DHT22;34527;45.618;5.130;2024-01-15T03:29:26;3.10;99.90
48728;DHT22;34527;45.618;5.130;2024-01-15T03:31:52;3.20;99.90
48728;DHT22;34527;45.618;5.130;2024-01-15T03:34:17;3.10;99.90
48728;DHT22;34527;45.618;5.130;2024-01-15T03:36:43;3.20;99.90
48728;DHT22;34527;45.618;5.130;2024-01-15T03:39:09;3.20;99.90
48728;DHT22;34527;45.618;5.130;2024-01-15T03:41:35;3.10;99.90
48728;DHT22;34527;45.618;5.130;2024-01-15T03:44:00;3.10;99.90
48728;DHT22;34527;45.618;5.130;2024-01-15T03:46:27;3.20;99.90
48728;DHT22;34527;45.618;5.130;2024-01-15T03:48:52;3.20;99.90
48728;DHT22;34527;45.618;5.130;2024-01-15T03:51:18;3.10;99.90
48728;DHT22;34527;45.618;5.130;2024-01-15T03:53:44;3.10;99.90
48728;DHT22;34527;45.618;5.130;2024-01-15T03:56:10;3.10;99.90
48728;DHT22;34527;45.618;5.130;2024-01-15T03:58:35;3.20;99.90
48728;DHT22;34527;45.618;5.130;2024-01-15T04:01:01;3.20;99.90
48728;DHT22;34527;45.618;5.130;2024-01-15T04:03:26;3.20;99.90
48728;DHT22;34527;45.618;5.130;2024-01-15T04:05:52;3.20;99.90
48728;DHT22;34527;45.618;5.130;2024-01-15T04:08:18;3.20;99.90
48728;DHT22;34527;45.618;5.130;2024-01-15T04:10:43;3.20;99.90
48728;DHT22;34527;45.618;5.130;2024-01-15T04:13:09;3.20;99.90
48728;DHT22;34527;45.618;5.130;2024-01-15T04:15:34;3.10;99.90
48728;DHT22;34527;45.618;5.130;2024-01-15T04:18:02;3.10;99.90
48728;DHT22;34527;45.618;5.130;2024-01-15T04:20:28;3.10;99.90
48728;DHT22;34527;45.618;5.130;2024-01-15T04:22:53;3.20;99.90
48728;DHT22;34527;45.618;5.130;2024-01-15T04:25:19;3.10;99.90
48728;DHT22;34527;45.618;5.130;2024-01-15T04:27:44;3.10;99.90
48728;DHT22;34527;45.618;5.130;2024-01-15T04:30:10;3.10;99.90
48728;DHT22;34527;45.618;5.130;2024-01-15T04:32:36;3.10;99.90
48728;DHT22;34527;45.618;5.130;2024-01-15T04:35:02;3.10;99.90
48728;DHT22;34527;45.618;5.130;2024-01-15T04:37:27;3.10;99.90
48728;DHT22;34527;45.618;5.130;2024-01-15T04:39:53;3.10;99.90
48728;DHT22;34527;45.618;5.130;2024-01-15T04:42:21;3.10;99.90
48728;DHT22;34527;45.618;5.130;2024-01-15T04:44:46;3.10;99.90
48728;DHT22;34527;45.618;5.130;2024-01-15T04:47:12;3.20;99.90
48728;DHT22;34527;45.618;5.130;2024-01-15T04:49:38;3.20;99.90
48728;DHT22;34527;45.618;5.130;2024-01-15T04:52:03;3.20;99.90
48728;DHT22;34527;45.618;5.130;2024-01-15T04:54:29;3.10;99.90
48728;DHT22;34527;45.618;5.130;2024-01-15T04:56:54;3.20;99.90
48728;DHT22;34527;45.618;5.130;2024-01-15T04:59:20;3.10;99.90
48728;DHT22;34527;45.618;5.130;2024-01-15T05:01:45;3.10;99.90
48728;DHT22;34527;45.618;5.130;2024-01-15T05:04:11;3.10;99.90
48728;DHT22;34527;45.618;5.130;2024-01-15T05:06:37;3.10;99.90
48728;DHT22;34527;45.618;5.130;2024-01-15T05:09:02;3.00;99.90
48728;DHT22;34527;45.618;5.130;2024-01-15T05:11:29;3.10;99.90
48728;DHT22;34527;45.618;5.130;2024-01-15T05:13:55;3.10;99.90
48728;DHT22;34527;45.618;5.130;2024-01-15T05:16:20;3.20;99.90
48728;DHT22;34527;45.618;5.130;2024-01-15T05:18:46;3.20;99.90
48728;DHT22;34527;45.618;5.130;2024-01-15T05:21:12;3.20;99.90
48728;DHT22;34527;45.618;5.130;2024-01-15T05:23:38;3.20;99.90
48728;DHT22;34527;45.618;5.130;2024-01-15T05:26:04;3.20;99.90
48728;DHT22;34527;45.618;5.130;2024-01-15T05:28:29;3.20;99.90
48728;DHT22;34527;45.618;5.130;2024-01-15T05:30:55;3.10;99.90
48728;DHT22;34527;45.618;5.130;2024-01-15T05:33:24;3.10;99.90
48728;DHT22;34527;45.618;5.130;2024-01-15T05:35:49;3.10;99.90
48728;DHT22;34527;45.618;5.130;2024-01-15T05:38:16;3.20;99.90
48728;DHT22;34527;45.618;5.130;2024-01-15T05:40:42;3.20;99.90
48728;DHT22;34527;45.618;5.130;2024-01-15T05:43:07;3.20;99.90
48728;DHT22;34527;45.618;5.130;2024-01-15T05:45:34;3.20;99.90
48728;DHT22;34527;45.618;5.130;2024-01-15T05:48:01;3.20;99.90
48728;DHT22;34527;45.618;5.130;2024-01-15T05:50:26;3.20;99.90
48728;DHT22;34527;45.618;5.130;2024-01-15T05:52:52;3.10;99.90
48728;DHT22;34527;45.618;5.130;2024-01-15T05:55:18;3.20;99.90
48728;DHT22;34527;45.618;5.130;2024-01-15T05:57:44;3.20;99.90
48728;DHT22;34527;45.618;5.130;2024-01-15T06:00:10;3.20;99.90
48728;DHT22;34527;45.618;5.130;2024-01-15T06:02:37;3.20;99.90
48728;DHT22;34527;45.618;5.130;2024-01-15T06:05:04;3.20;99.90
48728;DHT22;34527;45.618;5.130;2024-01-15T06:07:29;3.30;99.90
48728;DHT22;34527;45.618;5.130;2024-01-15T06:09:55;3.20;99.90
48728;DHT22;34527;45.618;5.130;2024-01-15T06:12:22;3.20;99.90
48728;DHT22;34527;45.618;5.130;2024-01-15T06:14:48;3.20;99.90
48728;DHT22;34527;45.618;5.130;2024-01-15T06:17:14;3.20;99.90
48728;DHT22;34527;45.618;5.130;2024-01-15T06:19:39;3.20;99.90
48728;DHT22;34527;45.618;5.130;2024-01-15T06:22:05;3.20;99.90
48728;DHT22;34527;45.618;5.130;2024-01-15T06:24:31;3.20;99.90
48728;DHT22;34527;45.618;5.130;2024-01-15T06:26:56;3.20;99.90
48728;DHT22;34527;45.618;5.130;2024-01-15T06:29:25;3.20;99.90
48728;DHT22;34527;45.618;5.130;2024-01-15T06:31:50;3.20;99.90
48728;DHT22;34527;45.618;5.130;2024-01-15T06:34:16;3.20;99.90
48728;DHT22;34527;45.618;5.130;2024-01-15T06:36:42;3.20;99.90
48728;DHT22;34527;45.618;5.130;2024-01-15T06:39:07;3.10;99.90
48728;DHT22;34527;45.618;5.130;2024-01-15T06:41:33;3.20;99.90
48728;DHT22;34527;45.618;5.130;2024-01-15T06:43:59;3.20;99.90
48728;DHT22;34527;45.618;5.130;2024-01-15T06:46:24;3.20;99.90
48728;DHT22;34527;45.618;5.130;2024-01-15T06:48:50;3.20;99.90
48728;DHT22;34527;45.618;5.130;2024-01-15T06:51:16;3.20;99.90
48728;DHT22;34527;45.618;5.130;2024-01-15T06:53:42;3.20;99.90
48728;DHT22;34527;45.618;5.130;2024-01-15T06:56:07;3.20;99.90
48728;DHT22;34527;45.618;5.130;2024-01-15T06:58:33;3.10;99.90
48728;DHT22;34527;45.618;5.130;2024-01-15T07:00:59;3.10;99.90
48728;DHT22;34527;45.618;5.130;2024-01-15T07:03:25;3.10;99.90
48728;DHT22;34527;45.618;5.130;2024-01-15T07:05:50;3.10;99.90
48728;DHT22;34527;45.618;5.130;2024-01-15T07:08:16;3.10;99.90
48728;DHT22;34527;45.618;5.130;2024-01-15T07:10:42;3.10;99.90
48728;DHT22;34527;45.618;5.130;2024-01-15T07:13:07;3.10;99.90
48728;DHT22;34527;45.618;5.130;2024-01-15T07:15:33;3.20;99.90
48728;DHT22;34527;45.618;5.130;2024-01-15T07:17:58;3.20;99.90
48728;DHT22;34527;45.618;5.130;2024-01-15T07:20:24;3.20;99.90
48728;DHT22;34527;45.618;5.130;2024-01-15T07:22:49;3.20;99.90
48728;DHT22;34527;45.618;5.130;2024-01-15T07:25:15;3.20;99.90
48728;DHT22;34527;45.618;5.130;2024-01-15T07:27:41;3.20;99.90
48728;DHT22;34527;45.618;5.130;2024-01-15T07:30:10;3.20;99.90
48728;DHT22;34527;45.618;5.130;2024-01-15T07:32:36;3.20;99.90
48728;DHT22;34527;45.618;5.130;2024-01-15T07:35:03;3.20;99.90
48728;DHT22;34527;45.618;5.130;2024-01-15T07:37:28;3.20;99.90
48728;DHT22;34527;45.618;5.130;2024-01-15T07:39:54;3.20;99.90
48728;DHT22;34527;45.618;5.130;2024-01-15T07:42:19;3.20;99.90
48728;DHT22;34527;45.618;5.130;2024-01-15T07:44:45;3.30;99.90
48728;DHT22;34527;45.618;5.130;2024-01-15T07:47:11;3.30;99.90
48728;DHT22;34527;45.618;5.130;2024-01-15T07:49:37;3.40;99.90
48728;DHT22;34527;45.618;5.130;2024-01-15T07:52:03;3.40;99.90
48728;DHT22;34527;45.618;5.130;2024-01-15T07:54:30;3.40;99.90
48728;DHT22;34527;45.618;5.130;2024-01-15T07:56:56;3.40;99.90
48728;DHT22;34527;45.618;5.130;2024-01-15T07:59:22;3.40;99.90
48728;DHT22;34527;45.618;5.130;2024-01-15T08:01:48;3.40;99.90
48728;DHT22;34527;45.618;5.130;2024-01-15T08:04:13;3.50;99.90
48728;DHT22;34527;45.618;5.130;2024-01-15T08:06:39;3.50;99.90
48728;DHT22;34527;45.618;5.130;2024-01-15T08:09:05;3.50;99.90
48728;DHT22;34527;45.618;5.130;2024-01-15T08:11:31;3.50;99.90
48728;DHT22;34527;45.618;5.130;2024-01-15T08:13:56;3.60;99.90
48728;DHT22;34527;45.618;5.130;2024-01-15T08:16:22;3.50;99.90
48728;DHT22;34527;45.618;5.130;2024-01-15T08:18:49;3.60;99.90
48728;DHT22;34527;45.618;5.130;2024-01-15T08:21:15;3.50;99.90
48728;DHT22;34527;45.618;5.130;2024-01-15T08:23:41;3.60;99.90
48728;DHT22;34527;45.618;5.130;2024-01-15T08:26:07;3.60;99.90
48728;DHT22;34527;45.618;5.130;2024-01-15T08:28:33;3.60;99.90
48728;DHT22;34527;45.618;5.130;2024-01-15T08:30:58;3.60;99.90
48728;DHT22;34527;45.618;5.130;2024-01-15T08:33:24;3.60;99.90
48728;DHT22;34527;45.618;5.130;2024-01-15T08:35:49;3.60;99.90
48728;DHT22;34527;45.618;5.130;2024-01-15T08:38:15;3.70;99.90
48728;DHT22;34527;45.618;5.130;2024-01-15T08:40:40;3.60;99.90
48728;DHT22;34527;45.618;5.130;2024-01-15T08:43:06;3.70;99.90
48728;DHT22;34527;45.618;5.130;2024-01-15T08:45:32;3.60;99.90
48728;DHT22;34527;45.618;5.130;2024-01-15T08:47:58;3.60;99.90
48728;DHT22;34527;45.618;5.130;2024-01-15T08:50:24;3.70;99.90
48728;DHT22;34527;45.618;5.130;2024-01-15T08:52:49;3.80;99.90
48728;DHT22;34527;45.618;5.130;2024-01-15T08:55:15;3.80;99.90
48728;DHT22;34527;45.618;5.130;2024-01-15T08:57:40;3.80;99.90
48728;DHT22;34527;45.618;5.130;2024-01-15T09:00:06;3.90;99.90
48728;DHT22;34527;45.618;5.130;2024-01-15T09:02:35;3.90;99.90
48728;DHT22;34527;45.618;5.130;2024-01-15T09:05:01;3.90;99.90
48728;DHT22;34527;45.618;5.130;2024-01-15T09:07:27;4.00;99.90
48728;DHT22;34527;45.618;5.130;2024-01-15T09:09:53;4.00;99.90
48728;DHT22;34527;45.618;5.130;2024-01-15T09:12:19;3.90;99.90
48728;DHT22;34527;45.618;5.130;2024-01-15T09:14:46;3.90;99.90
48728;DHT22;34527;45.618;5.130;2024-01-15T09:17:12;3.90;99.90
48728;DHT22;34527;45.618;5.130;2024-01-15T09:19:38;4.00;99.90
48728;DHT22;34527;45.618;5.130;2024-01-15T09:22:07;4.00;99.90
48728;DHT22;34527;45.618;5.130;2024-01-15T09:24:32;4.00;99.90
48728;DHT22;34527;45.618;5.130;2024-01-15T09:26:58;4.10;99.90
48728;DHT22;34527;45.618;5.130;2024-01-15T09:29:24;4.20;99.90
48728;DHT22;34527;45.618;5.130;2024-01-15T09:31:50;4.10;99.90
48728;DHT22;34527;45.618;5.130;2024-01-15T09:34:17;4.10;99.90
48728;DHT22;34527;45.618;5.130;2024-01-15T09:36:42;4.20;99.90
48728;DHT22;34527;45.618;5.130;2024-01-15T09:39:11;4.20;99.90
48728;DHT22;34527;45.618;5.130;2024-01-15T09:41:37;4.10;99.90
48728;DHT22;34527;45.618;5.130;2024-01-15T09:44:03;4.10;99.90
48728;DHT22;34527;45.618;5.130;2024-01-15T09:46:31;4.10;99.90
48728;DHT22;34527;45.618;5.130;2024-01-15T09:48:57;4.10;99.90
48728;DHT22;34527;45.618;5.130;2024-01-15T09:51:24;4.00;99.90
48728;DHT22;34527;45.618;5.130;2024-01-15T09:53:50;4.10;99.90
48728;DHT22;34527;45.618;5.130;2024-01-15T09:56:16;4.10;99.90
48728;DHT22;34527;45.618;5.130;2024-01-15T09:58:42;4.20;99.90
48728;DHT22;34527;45.618;5.130;2024-01-15T10:01:08;4.10;99.90
48728;DHT22;34527;45.618;5.130;2024-01-15T10:03:35;4.00;99.90
48728;DHT22;34527;45.618;5.130;2024-01-15T10:06:01;3.90;99.90
48728;DHT22;34527;45.618;5.130;2024-01-15T10:08:28;4.00;99.90
48728;DHT22;34527;45.618;5.130;2024-01-15T10:10:53;3.90;99.90
48728;DHT22;34527;45.618;5.130;2024-01-15T10:13:19;4.10;99.90
48728;DHT22;34527;45.618;5.130;2024-01-15T10:15:46;4.10;99.90
48728;DHT22;34527;45.618;5.130;2024-01-15T10:18:15;4.20;99.90
48728;DHT22;34527;45.618;5.130;2024-01-15T10:20:40;4.30;99.90
48728;DHT22;34527;45.618;5.130;2024-01-15T10:23:08;4.40;99.90
48728;DHT22;34527;45.618;5.130;2024-01-15T10:25:35;4.40;99.90
48728;DHT22;34527;45.618;5.130;2024-01-15T10:28:02;4.40;99.90
48728;DHT22;34527;45.618;5.130;2024-01-15T10:30:29;4.50;99.90
48728;DHT22;34527;45.618;5.130;2024-01-15T10:32:59;4.40;99.90
48728;DHT22;34527;45.618;5.130;2024-01-15T10:35:34;4.30;99.90
48728;DHT22;34527;45.618;5.130;2024-01-15T10:38:00;4.40;99.90
48728;DHT22;34527;45.618;5.130;2024-01-15T10:40:27;4.40;99.90
48728;DHT22;34527;45.618;5.130;2024-01-15T10:42:52;4.30;99.90
48728;DHT22;34527;45.618;5.130;2024-01-15T10:45:19;4.40;99.90
48728;DHT22;34527;45.618;5.130;2024-01-15T10:47:44;4.50;99.90
48728;DHT22;34527;45.618;5.130;2024-01-15T10:50:12;4.50;99.90
48728;DHT22;34527;45.618;5.130;2024-01-15T10:52:39;4.50;99.90
48728;DHT22;34527;45.618;5.130;2024-01-15T10:55:07;4.50;99.90
48728;DHT22;34527;45.618;5.130;2024-01-15T10:57:34;4.50;99.90
48728;DHT22;34527;45.618;5.130;2024-01-15T11:00:00;4.50;99.90
48728;DHT22;34527;45.618;5.130;2024-01-15T11:02:29;4.50;99.90
48728;DHT22;34527;45.618;5.130;2024-01-15T11:04:55;4.50;99.90
48728;DHT22;34527;45.618;5.130;2024-01-15T11:07:22;4.60;99.90
48728;DHT22;34527;45.618;5.130;2024-01-15T11:09:50;4.60;99.90
48728;DHT22;34527;45.618;5.130;2024-01-15T11:12:16;4.60;99.90
48728;DHT22;34527;45.618;5.130;2024-01-15T11:14:49;4.60;99.90
48728;DHT22;34527;45.618;5.130;2024-01-15T11:17:17;4.60;99.90
48728;DHT22;34527;45.618;5.130;2024-01-15T11:19:44;4.60;99.90
48728;DHT22;34527;45.618;5.130;2024-01-15T11:25:05;4.60;99.90
48728;DHT22;34527;45.618;5.130;2024-01-15T11:27:51;4.60;99.90
48728;DHT22;34527;45.618;5.130;2024-01-15T11:30:18;4.60;99.90
48728;DHT22;34527;45.618;5.130;2024-01-15T11:32:45;4.60;99.90
48728;DHT22;34527;45.618;5.130;2024-01-15T11:35:12;4.50;99.90
48728;DHT22;34527;45.618;5.130;2024-01-15T11:40:36;4.20;99.90
48728;DHT22;34527;45.618;5.130;2024-01-15T11:43:04;4.20;99.90
48728;DHT22;34527;45.618;5.130;2024-01-15T11:45:31;4.10;99.90
48728;DHT22;34527;45.618;5.130;2024-01-15T11:48:13;4.20;99.90
48728;DHT22;34527;45.618;5.130;2024-01-15T11:55:51;4.10;99.90
48728;DHT22;34527;45.618;5.130;2024-01-15T11:58:17;4.20;99.90
48728;DHT22;34527;45.618;5.130;2024-01-15T12:00:44;4.10;99.90
48728;DHT22;34527;45.618;5.130;2024-01-15T12:03:10;4.10;99.90
48728;DHT22;34527;45.618;5.130;2024-01-15T12:05:39;4.20;99.90
48728;DHT22;34527;45.618;5.130;2024-01-15T12:08:05;4.20;99.90
48728;DHT22;34527;45.618;5.130;2024-01-15T12:10:38;4.20;99.90
48728;DHT22;34527;45.618;5.130;2024-01-15T12:15:35;4.40;99.90
48728;DHT22;34527;45.618;5.130;2024-01-15T12:18:02;4.40;99.90
48728;DHT22;34527;45.618;5.130;2024-01-15T12:20:29;4.40;99.90
48728;DHT22;34527;45.618;5.130;2024-01-15T12:22:55;4.40;99.90
48728;DHT22;34527;45.618;5.130;2024-01-15T12:25:22;4.50;99.90
48728;DHT22;34527;45.618;5.130;2024-01-15T12:27:48;4.60;99.90
48728;DHT22;34527;45.618;5.130;2024-01-15T12:30:14;4.50;99.90
48728;DHT22;34527;45.618;5.130;2024-01-15T12:32:43;4.40;99.90
48728;DHT22;34527;45.618;5.130;2024-01-15T12:35:13;4.40;99.90
48728;DHT22;34527;45.618;5.130;2024-01-15T12:37:43;4.30;99.90
48728;DHT22;34527;45.618;5.130;2024-01-15T12:40:10;4.50;99.90
48728;DHT22;34527;45.618;5.130;2024-01-15T12:42:37;4.50;99.90
48728;DHT22;34527;45.618;5.130;2024-01-15T12:45:04;4.40;99.90
48728;DHT22;34527;45.618;5.130;2024-01-15T12:47:31;4.40;99.90
48728;DHT22;34527;45.618;5.130;2024-01-15T12:49:58;4.40;99.90
48728;DHT22;34527;45.618;5.130;2024-01-15T12:52:26;4.40;99.90
48728;DHT22;34527;45.618;5.130;2024-01-15T12:54:52;4.40;99.90
48728;DHT22;34527;45.618;5.130;2024-01-15T12:57:18;4.30;99.90
48728;DHT22;34527;45.618;5.130;2024-01-15T12:59:44;4.30;99.90
48728;DHT22;34527;45.618;5.130;2024-01-15T13:02:14;4.30;99.90
48728;DHT22;34527;45.618;5.130;2024-01-15T13:04:40;4.30;99.90
48728;DHT22;34527;45.618;5.130;2024-01-15T13:07:06;4.20;99.90
48728;DHT22;34527;45.618;5.130;2024-01-15T13:09:33;4.40;99.90
48728;DHT22;34527;45.618;5.130;2024-01-15T13:11:59;4.60;99.90
48728;DHT22;34527;45.618;5.130;2024-01-15T13:14:25;4.70;99.90
48728;DHT22;34527;45.618;5.130;2024-01-15T13:16:50;4.60;99.90
48728;DHT22;34527;45.618;5.130;2024-01-15T13:19:16;4.70;99.90
48728;DHT22;34527;45.618;5.130;2024-01-15T13:21:42;4.60;99.90
48728;DHT22;34527;45.618;5.130;2024-01-15T13:24:08;4.60;99.90
48728;DHT22;34527;45.618;5.130;2024-01-15T13:26:34;4.50;99.90
48728;DHT22;34527;45.618;5.130;2024-01-15T13:29:00;4.50;99.90
48728;DHT22;34527;45.618;5.130;2024-01-15T13:31:28;4.40;99.90
48728;DHT22;34527;45.618;5.130;2024-01-15T13:33:54;4.50;99.90
48728;DHT22;34527;45.618;5.130;2024-01-15T13:36:21;4.50;99.90
48728;DHT22;34527;45.618;5.130;2024-01-15T13:38:51;4.60;99.90
48728;DHT22;34527;45.618;5.130;2024-01-15T13:41:18;4.50;99.90
48728;DHT22;34527;45.618;5.130;2024-01-15T13:43:49;4.60;99.90
48728;DHT22;34527;45.618;5.130;2024-01-15T13:46:15;4.50;99.90
48728;DHT22;34527;45.618;5.130;2024-01-15T13:48:42;4.60;99.90
48728;DHT22;34527;45.618;5.130;2024-01-15T13:51:08;4.70;99.90
48728;DHT22;34527;45.618;5.130;2024-01-15T13:53:34;4.80;99.90
48728;DHT22;34527;45.618;5.130;2024-01-15T13:55:59;4.70;99.90
48728;DHT22;34527;45.618;5.130;2024-01-15T13:58:25;4.70;99.90
48728;DHT22;34527;45.618;5.130;2024-01-15T14:00:51;4.80;99.90
48728;DHT22;34527;45.618;5.130;2024-01-15T14:03:17;4.70;99.90
48728;DHT22;34527;45.618;5.130;2024-01-15T14:05:44;4.80;99.90
48728;DHT22;34527;45.618;5.130;2024-01-15T14:08:10;4.80;99.90
48728;DHT22;34527;45.618;5.130;2024-01-15T14:10:36;4.80;99.90
48728;DHT22;34527;45.618;5.130;2024-01-15T14:13:02;4.70;99.90
48728;DHT22;34527;45.618;5.130;2024-01-15T14:15:28;4.70;99.90
48728;DHT22;34527;45.618;5.130;2024-01-15T14:17:54;4.70;99.90
48728;DHT22;34527;45.618;5.130;2024-01-15T14:20:20;4.70;99.90
48728;DHT22;34527;45.618;5.130;2024-01-15T14:22:45;4.80;99.90
48728;DHT22;34527;45.618;5.130;2024-01-15T14:25:12;4.80;99.90
48728;DHT22;34527;45.618;5.130;2024-01-15T14:27:38;4.80;99.90
48728;DHT22;34527;45.618;5.130;2024-01-15T14:30:03;4.70;99.90
48728;DHT22;34527;45.618;5.130;2024-01-15T14:32:31;4.70;99.90
48728;DHT22;34527;45.618;5.130;2024-01-15T14:34:56;4.80;99.90
48728;DHT22;34527;45.618;5.130;2024-01-15T14:37:22;4.70;99.90
48728;DHT22;34527;45.618;5.130;2024-01-15T14:39:47;4.70;99.90
48728;DHT22;34527;45.618;5.130;2024-01-15T14:42:13;4.80;99.90
48728;DHT22;34527;45.618;5.130;2024-01-15T14:44:39;4.70;99.90
48728;DHT22;34527;45.618;5.130;2024-01-15T14:47:06;4.70;99.90
48728;DHT22;34527;45.618;5.130;2024-01-15T14:49:33;4.60;99.90
48728;DHT22;34527;45.618;5.130;2024-01-15T14:51:59;4.60;99.90
48728;DHT22;34527;45.618;5.130;2024-01-15T14:54:25;4.60;99.90
48728;DHT22;34527;45.618;5.130;2024-01-15T14:56:51;4.60;99.90
48728;DHT22;34527;45.618;5.130;2024-01-15T14:59:17;4.60;99.90
48728;DHT22;34527;45.618;5.130;2024-01-15T15:01:42;4.50;99.90
48728;DHT22;34527;45.618;5.130;2024-01-15T15:04:08;4.50;99.90
48728;DHT22;34527;45.618;5.130;2024-01-15T15:06:36;4.40;99.90
48728;DHT22;34527;45.618;5.130;2024-01-15T15:09:02;4.40;99.90
48728;DHT22;34527;45.618;5.130;2024-01-15T15:11:30;4.40;99.90
48728;DHT22;34527;45.618;5.130;2024-01-15T15:13:56;4.40;99.90
48728;DHT22;34527;45.618;5.130;2024-01-15T15:16:21;4.40;99.90
48728;DHT22;34527;45.618;5.130;2024-01-15T15:18:47;4.40;99.90
48728;DHT22;34527;45.618;5.130;2024-01-15T15:21:13;4.40;99.90
48728;DHT22;34527;45.618;5.130;2024-01-15T15:23:38;4.30;99.90
48728;DHT22;34527;45.618;5.130;2024-01-15T15:26:06;4.40;99.90
48728;DHT22;34527;45.618;5.130;2024-01-15T15:28:32;4.40;99.90
48728;DHT22;34527;45.618;5.130;2024-01-15T15:31:02;4.40;99.90
48728;DHT22;34527;45.618;5.130;2024-01-15T15:33:27;4.40;99.90
48728;DHT22;34527;45.618;5.130;2024-01-15T15:35:53;4.40;99.90
48728;DHT22;34527;45.618;5.130;2024-01-15T15:38:20;4.40;99.90
48728;DHT22;34527;45.618;5.130;2024-01-15T15:40:46;4.30;99.90
48728;DHT22;34527;45.618;5.130;2024-01-15T15:43:11;4.40;99.90
48728;DHT22;34527;45.618;5.130;2024-01-15T15:45:37;4.30;99.90
48728;DHT22;34527;45.618;5.130;2024-01-15T15:48:02;4.30;99.90
48728;DHT22;34527;45.618;5.130;2024-01-15T15:50:28;4.30;99.90
48728;DHT22;34527;45.618;5.130;2024-01-15T15:52:54;4.30;99.90